sensor_id;sensor_type;location;lat;lon;timestamp;pressure;altitude;pressure_sealevel;temperature;humidity
80798;BME280;70202;52.238;10.680;2023-05-16T00:01:47;99884.00;;;11.63;68.49
80798;BME280;70202;52.238;10.680;2023-05-16T00:04:13;99853.06;;;11.45;68.16
80798;BME280;70202;52.238;10.680;2023-05-16T00:06:38;99891.38;;;11.61;68.23
80798;BME280;70202;52.238;10.680;2023-05-16T00:09:03;99888.66;;;11.61;68.69
80798;BME280;70202;52.238;10.680;2023-05-16T00:11:29;99888.66;;;11.61;68.56
80798;BME280;70202;52.238;10.680;2023-05-16T00:13:54;99895.72;;;11.65;68.48
80798;BME280;70202;52.238;10.680;2023-05-16T00:16:20;99888.00;;;11.56;67.92
80798;BME280;70202;52.238;10.680;2023-05-16T00:18:46;99898.75;;;11.59;67.98
80798;BME280;70202;52.238;10.680;2023-05-16T00:21:12;99877.53;;;11.46;67.75
80798;BME280;70202;52.238;10.680;2023-05-16T00:23:38;99887.66;;;11.44;67.99
80798;BME280;70202;52.238;10.680;2023-05-16T00:26:03;99884.59;;;11.50;67.64
80798;BME280;70202;52.238;10.680;2023-05-16T00:28:29;99890.00;;;11.33;67.85
80798;BME280;70202;52.238;10.680;2023-05-16T00:30:54;99886.53;;;11.48;67.93
80798;BME280;70202;52.238;10.680;2023-05-16T00:33:20;99889.56;;;11.42;67.15
80798;BME280;70202;52.238;10.680;2023-05-16T00:35:45;99885.88;;;11.43;67.42
80798;BME280;70202;52.238;10.680;2023-05-16T00:38:10;99880.81;;;11.36;68.08
80798;BME280;70202;52.238;10.680;2023-05-16T00:40:36;99903.13;;;11.44;67.81
80798;BME280;70202;52.238;10.680;2023-05-16T00:43:02;99886.13;;;11.39;67.33
80798;BME280;70202;52.238;10.680;2023-05-16T00:45:27;99875.50;;;11.33;67.23
80798;BME280;70202;52.238;10.680;2023-05-16T00:47:53;99895.69;;;11.47;67.56
80798;BME280;70202;52.238;10.680;2023-05-16T00:50:19;99902.59;;;11.55;67.80
80798;BME280;70202;52.238;10.680;2023-05-16T00:52:44;99900.53;;;11.60;67.66
80798;BME280;70202;52.238;10.680;2023-05-16T00:55:10;99906.66;;;11.65;67.77
80798;BME280;70202;52.238;10.680;2023-05-16T00:57:38;99918.66;;;11.61;66.73
80798;BME280;70202;52.238;10.680;2023-05-16T01:00:06;99916.59;;;11.66;67.14
80798;BME280;70202;52.238;10.680;2023-05-16T01:02:31;99918.50;;;11.64;66.73
80798;BME280;70202;52.238;10.680;2023-05-16T01:04:58;99924.88;;;11.64;66.36
80798;BME280;70202;52.238;10.680;2023-05-16T01:07:24;99915.19;;;11.57;66.95
80798;BME280;70202;52.238;10.680;2023-05-16T01:09:49;99856.53;;;11.30;66.55
80798;BME280;70202;52.238;10.680;2023-05-16T01:15:29;99923.66;;;11.70;66.33
80798;BME280;70202;52.238;10.680;2023-05-16T01:18:05;99936.47;;;11.68;65.90
80798;BME280;70202;52.238;10.680;2023-05-16T01:23:18;99917.47;;;11.66;66.25
80798;BME280;70202;52.238;10.680;2023-05-16T01:28:39;99933.78;;;11.87;66.19
80798;BME280;70202;52.238;10.680;2023-05-16T01:31:05;99914.00;;;11.82;65.69
80798;BME280;70202;52.238;10.680;2023-05-16T01:33:30;99924.84;;;11.83;66.65
80798;BME280;70202;52.238;10.680;2023-05-16T01:38:38;99938.50;;;11.83;66.63
80798;BME280;70202;52.238;10.680;2023-05-16T01:41:15;99929.28;;;11.86;66.35
80798;BME280;70202;52.238;10.680;2023-05-16T01:43:48;99925.59;;;11.87;66.39
80798;BME280;70202;52.238;10.680;2023-05-16T01:46:22;99932.00;;;11.86;66.35
80798;BME280;70202;52.238;10.680;2023-05-16T01:48:58;99931.19;;;11.84;66.62
80798;BME280;70202;52.238;10.680;2023-05-16T01:51:28;99920.78;;;11.73;67.11
80798;BME280;70202;52.238;10.680;2023-05-16T01:53:59;99917.47;;;11.66;67.08
80798;BME280;70202;52.238;10.680;2023-05-16T01:56:27;99938.69;;;11.79;67.27
80798;BME280;70202;52.238;10.680;2023-05-16T01:58:54;99944.25;;;11.77;67.05
80798;BME280;70202;52.238;10.680;2023-05-16T02:01:20;99928.25;;;11.69;67.04
80798;BME280;70202;52.238;10.680;2023-05-16T02:03:45;99936.34;;;11.71;67.69
80798;BME280;70202;52.238;10.680;2023-05-16T02:06:11;99935.47;;;11.70;67.48
80798;BME280;70202;52.238;10.680;2023-05-16T02:08:36;99956.81;;;11.80;67.51
80798;BME280;70202;52.238;10.680;2023-05-16T02:11:01;99960.59;;;11.77;66.97
80798;BME280;70202;52.238;10.680;2023-05-16T02:13:27;99962.59;;;11.73;67.02
80798;BME280;70202;52.238;10.680;2023-05-16T02:15:52;99943.28;;;11.59;67.18
80798;BME280;70202;52.238;10.680;2023-05-16T02:18:17;99961.84;;;11.70;68.12
80798;BME280;70202;52.238;10.680;2023-05-16T02:20:43;99957.75;;;11.61;67.85
80798;BME280;70202;52.238;10.680;2023-05-16T02:23:08;99963.28;;;11.60;68.77
80798;BME280;70202;52.238;10.680;2023-05-16T02:25:34;99956.25;;;11.54;68.85
80798;BME280;70202;52.238;10.680;2023-05-16T02:27:59;99966.16;;;11.57;68.89
80798;BME280;70202;52.238;10.680;2023-05-16T02:30:25;99962.03;;;11.48;68.84
80798;BME280;70202;52.238;10.680;2023-05-16T02:32:50;99975.66;;;11.48;69.03
80798;BME280;70202;52.238;10.680;2023-05-16T02:35:17;99962.31;;;11.42;69.35
80798;BME280;70202;52.238;10.680;2023-05-16T02:37:43;99965.41;;;11.53;69.73
80798;BME280;70202;52.238;10.680;2023-05-16T02:40:09;99964.59;;;11.51;69.23
80798;BME280;70202;52.238;10.680;2023-05-16T02:42:34;99979.69;;;11.58;69.03
80798;BME280;70202;52.238;10.680;2023-05-16T02:44:59;99980.59;;;11.59;69.48
80798;BME280;70202;52.238;10.680;2023-05-16T02:47:25;99973.38;;;11.58;69.50
80798;BME280;70202;52.238;10.680;2023-05-16T02:49:50;99968.66;;;11.61;69.00
80798;BME280;70202;52.238;10.680;2023-05-16T02:52:17;99966.94;;;11.59;69.10
80798;BME280;70202;52.238;10.680;2023-05-16T02:54:42;99961.56;;;11.57;69.04
80798;BME280;70202;52.238;10.680;2023-05-16T02:57:08;99976.63;;;11.66;69.20
80798;BME280;70202;52.238;10.680;2023-05-16T02:59:33;99983.47;;;11.74;68.70
80798;BME280;70202;52.238;10.680;2023-05-16T03:01:59;99962.81;;;11.69;69.12
80798;BME280;70202;52.238;10.680;2023-05-16T03:04:24;99972.88;;;11.68;69.14
80798;BME280;70202;52.238;10.680;2023-05-16T03:06:50;99959.13;;;11.70;69.05
80798;BME280;70202;52.238;10.680;2023-05-16T03:09:16;99965.47;;;11.70;69.48
80798;BME280;70202;52.238;10.680;2023-05-16T03:11:41;99964.72;;;11.67;69.41
80798;BME280;70202;52.238;10.680;2023-05-16T03:14:06;99958.03;;;11.55;68.76
80798;BME280;70202;52.238;10.680;2023-05-16T03:16:32;99958.75;;;11.59;68.53
80798;BME280;70202;52.238;10.680;2023-05-16T03:18:58;99964.31;;;11.57;68.68
80798;BME280;70202;52.238;10.680;2023-05-16T03:21:23;99971.38;;;11.61;69.45
80798;BME280;70202;52.238;10.680;2023-05-16T03:23:49;99974.91;;;11.63;69.38
80798;BME280;70202;52.238;10.680;2023-05-16T03:26:14;99954.41;;;11.55;68.81
80798;BME280;70202;52.238;10.680;2023-05-16T03:28:39;99975.13;;;11.59;68.57
80798;BME280;70202;52.238;10.680;2023-05-16T03:31:05;99973.06;;;11.64;68.99
80798;BME280;70202;52.238;10.680;2023-05-16T03:33:30;99965.03;;;11.61;69.07
80798;BME280;70202;52.238;10.680;2023-05-16T03:35:55;99959.81;;;11.56;69.02
80798;BME280;70202;52.238;10.680;2023-05-16T03:38:22;99954.19;;;11.59;68.90
80798;BME280;70202;52.238;10.680;2023-05-16T03:40:47;99968.88;;;11.57;69.11
80798;BME280;70202;52.238;10.680;2023-05-16T03:43:13;99979.03;;;11.72;69.20
80798;BME280;70202;52.238;10.680;2023-05-16T03:45:38;99978.59;;;11.62;69.06
80798;BME280;70202;52.238;10.680;2023-05-16T03:48:04;99983.97;;;11.64;69.30
80798;BME280;70202;52.238;10.680;2023-05-16T03:50:30;99985.75;;;11.65;69.29
80798;BME280;70202;52.238;10.680;2023-05-16T03:52:55;99993.63;;;11.71;68.96
80798;BME280;70202;52.238;10.680;2023-05-16T03:55:20;99992.09;;;11.65;69.21
80798;BME280;70202;52.238;10.680;2023-05-16T03:57:46;99990.13;;;11.69;69.21
80798;BME280;70202;52.238;10.680;2023-05-16T04:00:12;99990.13;;;11.69;68.96
80798;BME280;70202;52.238;10.680;2023-05-16T04:02:38;99994.22;;;11.77;68.67
80798;BME280;70202;52.238;10.680;2023-05-16T04:05:07;100006.72;;;11.83;68.45
80798;BME280;70202;52.238;10.680;2023-05-16T04:07:33;100003.34;;;11.76;68.91
80798;BME280;70202;52.238;10.680;2023-05-16T04:09:58;99989.06;;;11.71;69.79
80798;BME280;70202;52.238;10.680;2023-05-16T04:12:24;100011.75;;;11.72;69.91
80798;BME280;70202;52.238;10.680;2023-05-16T04:14:49;100013.34;;;11.77;69.32
80798;BME280;70202;52.238;10.680;2023-05-16T04:17:14;100003.81;;;11.67;70.01
80798;BME280;70202;52.238;10.680;2023-05-16T04:19:40;100011.09;;;11.67;69.82
80798;BME280;70202;52.238;10.680;2023-05-16T04:22:05;100036.84;;;11.80;69.46
80798;BME280;70202;52.238;10.680;2023-05-16T04:24:32;100018.13;;;11.72;70.43
80798;BME280;70202;52.238;10.680;2023-05-16T04:26:57;100022.47;;;11.76;70.05
80798;BME280;70202;52.238;10.680;2023-05-16T04:29:23;100024.53;;;11.71;70.40
80798;BME280;70202;52.238;10.680;2023-05-16T04:31:48;100024.53;;;11.71;70.55
80798;BME280;70202;52.238;10.680;2023-05-16T04:34:13;100024.63;;;11.70;71.35
80798;BME280;70202;52.238;10.680;2023-05-16T04:36:40;100038.16;;;11.71;71.94
80798;BME280;70202;52.238;10.680;2023-05-16T04:39:06;100024.09;;;11.62;72.17
80798;BME280;70202;52.238;10.680;2023-05-16T04:41:32;100030.66;;;11.58;72.71
80798;BME280;70202;52.238;10.680;2023-05-16T04:43:59;100051.38;;;11.62;73.01
80798;BME280;70202;52.238;10.680;2023-05-16T04:46:25;100046.28;;;11.54;72.92
80798;BME280;70202;52.238;10.680;2023-05-16T04:48:50;100032.41;;;11.40;73.06
80798;BME280;70202;52.238;10.680;2023-05-16T04:51:16;100027.16;;;11.35;73.65
80798;BME280;70202;52.238;10.680;2023-05-16T04:53:41;100038.63;;;11.43;73.18
80798;BME280;70202;52.238;10.680;2023-05-16T04:56:07;100052.78;;;11.51;72.86
80798;BME280;70202;52.238;10.680;2023-05-16T04:58:32;100040.50;;;11.41;72.91
80798;BME280;70202;52.238;10.680;2023-05-16T05:00:57;100050.75;;;11.55;72.03
80798;BME280;70202;52.238;10.680;2023-05-16T05:03:23;100048.34;;;11.49;71.87
80798;BME280;70202;52.238;10.680;2023-05-16T05:05:48;100056.03;;;11.60;71.15
80798;BME280;70202;52.238;10.680;2023-05-16T05:08:14;100061.75;;;11.54;70.71
80798;BME280;70202;52.238;10.680;2023-05-16T05:10:40;100053.56;;;11.54;71.40
80798;BME280;70202;52.238;10.680;2023-05-16T05:13:06;100053.72;;;11.50;71.28
80798;BME280;70202;52.238;10.680;2023-05-16T05:15:31;100050.97;;;11.50;70.09
80798;BME280;70202;52.238;10.680;2023-05-16T05:17:56;100072.19;;;11.64;70.23
80798;BME280;70202;52.238;10.680;2023-05-16T05:20:22;100072.91;;;11.68;70.68
80798;BME280;70202;52.238;10.680;2023-05-16T05:22:47;100061.06;;;11.69;70.61
80798;BME280;70202;52.238;10.680;2023-05-16T05:25:13;100079.38;;;11.86;70.40
80798;BME280;70202;52.238;10.680;2023-05-16T05:27:38;100081.88;;;11.90;69.39
80798;BME280;70202;52.238;10.680;2023-05-16T05:30:04;100098.47;;;12.05;68.81
80798;BME280;70202;52.238;10.680;2023-05-16T05:32:30;100104.91;;;12.04;68.37
80798;BME280;70202;52.238;10.680;2023-05-16T05:34:56;100105.66;;;12.07;68.61
80798;BME280;70202;52.238;10.680;2023-05-16T05:37:21;100101.06;;;12.08;68.27
80798;BME280;70202;52.238;10.680;2023-05-16T05:39:46;100094.50;;;12.12;68.20
80798;BME280;70202;52.238;10.680;2023-05-16T05:42:12;100105.63;;;12.26;67.37
80798;BME280;70202;52.238;10.680;2023-05-16T05:44:37;100091.91;;;12.28;67.53
80798;BME280;70202;52.238;10.680;2023-05-16T05:47:06;100081.56;;;12.34;66.95
80798;BME280;70202;52.238;10.680;2023-05-16T05:49:31;100087.09;;;12.33;66.42
80798;BME280;70202;52.238;10.680;2023-05-16T05:51:57;100091.69;;;12.32;67.04
80798;BME280;70202;52.238;10.680;2023-05-16T05:54:23;100104.69;;;12.44;66.42
80798;BME280;70202;52.238;10.680;2023-05-16T05:56:49;100054.44;;;12.12;66.51
80798;BME280;70202;52.238;10.680;2023-05-16T05:59:14;100116.38;;;12.48;65.69
80798;BME280;70202;52.238;10.680;2023-05-16T06:01:40;100126.19;;;12.52;66.15
80798;BME280;70202;52.238;10.680;2023-05-16T06:04:06;100119.41;;;12.42;65.90
80798;BME280;70202;52.238;10.680;2023-05-16T06:06:31;100119.56;;;12.39;66.09
80798;BME280;70202;52.238;10.680;2023-05-16T06:08:57;100138.44;;;12.43;66.60
80798;BME280;70202;52.238;10.680;2023-05-16T06:11:23;100128.81;;;12.17;66.87
80798;BME280;70202;52.238;10.680;2023-05-16T06:13:50;100132.25;;;12.02;68.25
80798;BME280;70202;52.238;10.680;2023-05-16T06:16:15;100159.78;;;11.97;68.62
80798;BME280;70202;52.238;10.680;2023-05-16T06:18:41;100167.44;;;11.89;69.31
80798;BME280;70202;52.238;10.680;2023-05-16T06:21:06;100163.25;;;11.81;69.27
80798;BME280;70202;52.238;10.680;2023-05-16T06:23:32;100174.16;;;11.81;69.52
80798;BME280;70202;52.238;10.680;2023-05-16T06:25:57;100157.28;;;11.72;69.31
80798;BME280;70202;52.238;10.680;2023-05-16T06:28:23;100178.28;;;11.70;69.24
80798;BME280;70202;52.238;10.680;2023-05-16T06:30:48;100154.16;;;11.61;68.84
80798;BME280;70202;52.238;10.680;2023-05-16T06:33:16;100187.91;;;11.79;69.41
80798;BME280;70202;52.238;10.680;2023-05-16T06:35:41;100185.81;;;11.86;68.38
80798;BME280;70202;52.238;10.680;2023-05-16T06:38:06;100190.41;;;11.85;68.86
80798;BME280;70202;52.238;10.680;2023-05-16T06:40:32;100174.34;;;11.77;68.46
80798;BME280;70202;52.238;10.680;2023-05-16T06:42:57;100173.28;;;11.80;67.59
80798;BME280;70202;52.238;10.680;2023-05-16T06:45:22;100185.38;;;11.95;67.65
80798;BME280;70202;52.238;10.680;2023-05-16T06:47:48;100202.44;;;12.00;67.56
80798;BME280;70202;52.238;10.680;2023-05-16T06:50:13;100179.84;;;11.96;66.88
80798;BME280;70202;52.238;10.680;2023-05-16T06:52:39;100203.75;;;12.10;66.51
80798;BME280;70202;52.238;10.680;2023-05-16T06:55:04;100189.19;;;12.11;65.60
80798;BME280;70202;52.238;10.680;2023-05-16T06:57:30;100201.88;;;12.12;65.69
80798;BME280;70202;52.238;10.680;2023-05-16T06:59:55;100205.69;;;12.08;65.15
80798;BME280;70202;52.238;10.680;2023-05-16T07:02:20;100201.56;;;11.99;64.53
80798;BME280;70202;52.238;10.680;2023-05-16T07:04:46;100183.81;;;11.89;64.95
80798;BME280;70202;52.238;10.680;2023-05-16T07:07:11;100203.31;;;12.00;64.76
80798;BME280;70202;52.238;10.680;2023-05-16T07:09:37;100199.84;;;11.97;64.67
80798;BME280;70202;52.238;10.680;2023-05-16T07:12:03;100214.97;;;12.04;63.84
80798;BME280;70202;52.238;10.680;2023-05-16T07:14:29;100207.91;;;12.00;64.35
80798;BME280;70202;52.238;10.680;2023-05-16T07:16:54;100200.19;;;11.89;64.30
80798;BME280;70202;52.238;10.680;2023-05-16T07:19:20;100217.78;;;12.03;64.15
80798;BME280;70202;52.238;10.680;2023-05-16T07:21:45;100200.59;;;12.00;63.23
80798;BME280;70202;52.238;10.680;2023-05-16T07:24:10;100223.03;;;12.07;62.10
80798;BME280;70202;52.238;10.680;2023-05-16T07:26:36;100221.47;;;12.01;61.36
80798;BME280;70202;52.238;10.680;2023-05-16T07:29:01;100220.78;;;11.96;61.13
80798;BME280;70202;52.238;10.680;2023-05-16T07:31:28;100230.13;;;12.11;60.77
80798;BME280;70202;52.238;10.680;2023-05-16T07:33:54;100233.31;;;12.21;60.89
80798;BME280;70202;52.238;10.680;2023-05-16T07:36:19;100234.38;;;12.37;58.85
80798;BME280;70202;52.238;10.680;2023-05-16T07:38:45;100224.53;;;12.52;58.09
80798;BME280;70202;52.238;10.680;2023-05-16T07:41:10;100216.41;;;12.69;57.67
80798;BME280;70202;52.238;10.680;2023-05-16T07:43:36;100222.59;;;12.92;57.81
80798;BME280;70202;52.238;10.680;2023-05-16T07:46:02;100229.94;;;13.28;56.94
80798;BME280;70202;52.238;10.680;2023-05-16T07:48:27;100229.84;;;13.46;55.88
80798;BME280;70202;52.238;10.680;2023-05-16T07:50:53;100229.88;;;13.64;56.24
80798;BME280;70202;52.238;10.680;2023-05-16T07:53:20;100229.53;;;13.87;55.43
80798;BME280;70202;52.238;10.680;2023-05-16T07:55:45;100205.97;;;14.00;55.20
80798;BME280;70202;52.238;10.680;2023-05-16T07:58:10;100234.34;;;14.33;53.90
80798;BME280;70202;52.238;10.680;2023-05-16T08:00:36;100242.84;;;14.44;52.27
80798;BME280;70202;52.238;10.680;2023-05-16T08:03:03;100238.69;;;14.37;50.51
80798;BME280;70202;52.238;10.680;2023-05-16T08:05:28;100249.25;;;14.27;49.49
80798;BME280;70202;52.238;10.680;2023-05-16T08:07:54;100240.44;;;14.05;50.07
80798;BME280;70202;52.238;10.680;2023-05-16T08:10:19;100232.41;;;14.01;50.77
80798;BME280;70202;52.238;10.680;2023-05-16T08:12:44;100254.53;;;14.14;49.21
80798;BME280;70202;52.238;10.680;2023-05-16T08:15:10;100235.78;;;14.07;49.69
80798;BME280;70202;52.238;10.680;2023-05-16T08:17:36;100273.69;;;14.14;49.76
80798;BME280;70202;52.238;10.680;2023-05-16T08:20:02;100220.66;;;13.99;49.79
80798;BME280;70202;52.238;10.680;2023-05-16T08:22:28;100243.59;;;13.97;50.55
80798;BME280;70202;52.238;10.680;2023-05-16T08:24:53;100249.81;;;14.00;50.48
80798;BME280;70202;52.238;10.680;2023-05-16T08:27:22;100235.63;;;13.92;51.25
80798;BME280;70202;52.238;10.680;2023-05-16T08:29:48;100232.38;;;13.86;51.50
80798;BME280;70202;52.238;10.680;2023-05-16T08:32:13;100225.28;;;13.82;50.44
80798;BME280;70202;52.238;10.680;2023-05-16T08:34:38;100245.22;;;14.01;50.67
80798;BME280;70202;52.238;10.680;2023-05-16T08:37:04;100238.44;;;14.08;50.75
80798;BME280;70202;52.238;10.680;2023-05-16T08:39:29;100248.22;;;14.30;50.78
80798;BME280;70202;52.238;10.680;2023-05-16T08:41:55;100254.16;;;14.38;49.00
80798;BME280;70202;52.238;10.680;2023-05-16T08:44:21;100252.72;;;14.31;49.46
80798;BME280;70202;52.238;10.680;2023-05-16T08:46:51;100248.06;;;14.33;49.29
80798;BME280;70202;52.238;10.680;2023-05-16T08:49:18;100252.94;;;14.43;49.53
80798;BME280;70202;52.238;10.680;2023-05-16T08:51:45;100241.69;;;14.48;49.50
80798;BME280;70202;52.238;10.680;2023-05-16T08:54:12;100243.78;;;14.60;49.99
80798;BME280;70202;52.238;10.680;2023-05-16T08:56:43;100242.66;;;14.80;48.97
80798;BME280;70202;52.238;10.680;2023-05-16T08:59:09;100239.75;;;14.83;46.50
80798;BME280;70202;52.238;10.680;2023-05-16T09:01:35;100253.09;;;14.89;44.54
80798;BME280;70202;52.238;10.680;2023-05-16T09:04:02;100255.75;;;14.91;45.11
80798;BME280;70202;52.238;10.680;2023-05-16T09:06:28;100243.56;;;14.81;43.78
80798;BME280;70202;52.238;10.680;2023-05-16T09:08:53;100247.09;;;14.83;44.42
80798;BME280;70202;52.238;10.680;2023-05-16T09:11:19;100248.25;;;14.79;44.35
80798;BME280;70202;52.238;10.680;2023-05-16T09:13:46;100248.41;;;14.75;44.83
80798;BME280;70202;52.238;10.680;2023-05-16T09:16:13;100249.66;;;14.70;45.70
80798;BME280;70202;52.238;10.680;2023-05-16T09:18:39;100253.19;;;14.72;46.15
80798;BME280;70202;52.238;10.680;2023-05-16T09:21:05;100237.16;;;14.64;46.50
80798;BME280;70202;52.238;10.680;2023-05-16T09:23:35;100234.69;;;14.60;46.17
80798;BME280;70202;52.238;10.680;2023-05-16T09:26:01;100249.13;;;14.63;45.52
80798;BME280;70202;52.238;10.680;2023-05-16T09:28:27;100244.16;;;14.54;46.45
80798;BME280;70202;52.238;10.680;2023-05-16T09:30:52;100245.69;;;14.42;47.31
80798;BME280;70202;52.238;10.680;2023-05-16T09:33:25;100224.44;;;14.30;45.79
80798;BME280;70202;52.238;10.680;2023-05-16T09:38:20;100240.72;;;14.33;46.63
80798;BME280;70202;52.238;10.680;2023-05-16T09:40:45;100231.47;;;14.36;45.66
80798;BME280;70202;52.238;10.680;2023-05-16T09:43:14;100246.97;;;14.35;45.33
80798;BME280;70202;52.238;10.680;2023-05-16T09:45:42;100251.78;;;14.47;45.19
80798;BME280;70202;52.238;10.680;2023-05-16T09:48:10;100232.34;;;14.36;44.73
80798;BME280;70202;52.238;10.680;2023-05-16T09:50:39;100239.66;;;14.53;44.98
80798;BME280;70202;52.238;10.680;2023-05-16T09:53:04;100228.97;;;14.47;45.08
80798;BME280;70202;52.238;10.680;2023-05-16T09:55:30;100249.78;;;14.51;46.36
80798;BME280;70202;52.238;10.680;2023-05-16T09:57:56;100242.19;;;14.56;44.98
80798;BME280;70202;52.238;10.680;2023-05-16T10:00:21;100243.06;;;14.57;45.40
80798;BME280;70202;52.238;10.680;2023-05-16T10:02:56;100235.41;;;14.63;44.43
80798;BME280;70202;52.238;10.680;2023-05-16T10:05:23;100240.34;;;14.72;45.68
80798;BME280;70202;52.238;10.680;2023-05-16T10:07:51;100232.69;;;14.79;45.69
80798;BME280;70202;52.238;10.680;2023-05-16T10:10:18;100250.47;;;14.88;45.60
80798;BME280;70202;52.238;10.680;2023-05-16T10:12:44;100254.63;;;14.79;43.80
80798;BME280;70202;52.238;10.680;2023-05-16T10:15:10;100250.72;;;14.67;43.25
80798;BME280;70202;52.238;10.680;2023-05-16T10:17:38;100253.09;;;14.73;43.17
80798;BME280;70202;52.238;10.680;2023-05-16T10:20:06;100245.50;;;14.79;42.87
80798;BME280;70202;52.238;10.680;2023-05-16T10:22:35;100236.13;;;14.83;43.21
80798;BME280;70202;52.238;10.680;2023-05-16T10:25:11;100260.63;;;15.02;42.24
80798;BME280;70202;52.238;10.680;2023-05-16T10:27:41;100247.28;;;14.95;42.70
80798;BME280;70202;52.238;10.680;2023-05-16T10:30:08;100244.50;;;15.11;42.55
80798;BME280;70202;52.238;10.680;2023-05-16T10:32:35;100238.41;;;15.22;41.78
80798;BME280;70202;52.238;10.680;2023-05-16T10:35:01;100227.88;;;15.14;41.16
80798;BME280;70202;52.238;10.680;2023-05-16T10:37:29;100263.44;;;15.16;42.04
80798;BME280;70202;52.238;10.680;2023-05-16T10:39:56;100267.72;;;15.21;42.47
80798;BME280;70202;52.238;10.680;2023-05-16T10:42:23;100243.88;;;15.22;41.71
80798;BME280;70202;52.238;10.680;2023-05-16T10:44:52;100256.00;;;15.34;41.62
80798;BME280;70202;52.238;10.680;2023-05-16T10:47:18;100255.72;;;15.38;41.30
80798;BME280;70202;52.238;10.680;2023-05-16T10:49:44;100259.97;;;15.44;41.63
80798;BME280;70202;52.238;10.680;2023-05-16T10:52:11;100268.31;;;15.42;41.71
80798;BME280;70202;52.238;10.680;2023-05-16T10:54:39;100277.75;;;15.37;42.21
80798;BME280;70202;52.238;10.680;2023-05-16T10:57:07;100271.41;;;15.20;39.90
80798;BME280;70202;52.238;10.680;2023-05-16T10:59:44;100277.16;;;15.16;40.78
80798;BME280;70202;52.238;10.680;2023-05-16T11:02:24;100283.69;;;15.29;40.38
80798;BME280;70202;52.238;10.680;2023-05-16T11:05:00;100279.88;;;15.47;40.38
80798;BME280;70202;52.238;10.680;2023-05-16T11:07:31;100275.78;;;15.55;40.37
80798;BME280;70202;52.238;10.680;2023-05-16T11:10:07;100273.63;;;15.75;39.65
80798;BME280;70202;52.238;10.680;2023-05-16T11:12:49;100277.31;;;15.90;38.97
80798;BME280;70202;52.238;10.680;2023-05-16T11:17:44;100277.44;;;15.89;40.27
80798;BME280;70202;52.238;10.680;2023-05-16T11:20:24;100274.28;;;15.65;37.85
80798;BME280;70202;52.238;10.680;2023-05-16T11:22:50;100269.69;;;15.49;38.26
80798;BME280;70202;52.238;10.680;2023-05-16T11:25:16;100257.13;;;15.45;38.81
80798;BME280;70202;52.238;10.680;2023-05-16T11:27:59;100293.53;;;15.65;38.93
80798;BME280;70202;52.238;10.680;2023-05-16T11:30:25;100274.34;;;15.79;38.35
80798;BME280;70202;52.238;10.680;2023-05-16T11:32:50;100280.06;;;15.90;37.91
80798;BME280;70202;52.238;10.680;2023-05-16T11:35:16;100278.31;;;15.89;37.55
80798;BME280;70202;52.238;10.680;2023-05-16T11:37:43;100269.66;;;15.81;37.45
80798;BME280;70202;52.238;10.680;2023-05-16T11:40:11;100184.41;;;15.22;37.72
80798;BME280;70202;52.238;10.680;2023-05-16T11:42:38;100281.63;;;15.80;38.15
80798;BME280;70202;52.238;10.680;2023-05-16T11:45:09;100274.19;;;15.96;37.59
80798;BME280;70202;52.238;10.680;2023-05-16T11:47:37;100256.03;;;15.94;37.93
80798;BME280;70202;52.238;10.680;2023-05-16T11:50:09;100246.81;;;16.09;38.05
80798;BME280;70202;52.238;10.680;2023-05-16T11:52:36;100264.41;;;16.35;37.83
80798;BME280;70202;52.238;10.680;2023-05-16T11:55:03;100279.94;;;16.36;38.18
80798;BME280;70202;52.238;10.680;2023-05-16T11:57:29;100272.47;;;16.24;37.51
80798;BME280;70202;52.238;10.680;2023-05-16T11:59:54;100243.41;;;16.06;38.14
80798;BME280;70202;52.238;10.680;2023-05-16T12:02:19;100272.78;;;16.34;38.07
80798;BME280;70202;52.238;10.680;2023-05-16T12:04:45;100282.41;;;16.41;37.85
80798;BME280;70202;52.238;10.680;2023-05-16T12:07:13;100269.31;;;16.30;37.77
80798;BME280;70202;52.238;10.680;2023-05-16T12:09:39;100271.00;;;16.18;37.18
80798;BME280;70202;52.238;10.680;2023-05-16T12:12:04;100282.75;;;16.06;38.14
80798;BME280;70202;52.238;10.680;2023-05-16T12:14:31;100272.94;;;16.02;38.53
80798;BME280;70202;52.238;10.680;2023-05-16T12:16:57;100272.25;;;15.98;39.02
80798;BME280;70202;52.238;10.680;2023-05-16T12:19:22;100299.91;;;16.10;39.99
80798;BME280;70202;52.238;10.680;2023-05-16T12:21:51;100273.81;;;16.03;38.78
80798;BME280;70202;52.238;10.680;2023-05-16T12:24:17;100263.28;;;15.95;37.50
80798;BME280;70202;52.238;10.680;2023-05-16T12:26:42;100264.97;;;15.97;36.00
80798;BME280;70202;52.238;10.680;2023-05-16T12:29:09;100271.88;;;16.19;37.52
80798;BME280;70202;52.238;10.680;2023-05-16T12:31:37;100253.53;;;16.34;38.24
80798;BME280;70202;52.238;10.680;2023-05-16T12:34:03;100267.59;;;16.58;37.54
80798;BME280;70202;52.238;10.680;2023-05-16T12:36:32;100259.09;;;16.61;37.36
80798;BME280;70202;52.238;10.680;2023-05-16T12:39:00;100277.59;;;16.59;37.27
80798;BME280;70202;52.238;10.680;2023-05-16T12:41:28;100269.75;;;16.53;36.28
80798;BME280;70202;52.238;10.680;2023-05-16T12:44:05;100282.59;;;16.38;37.49
80798;BME280;70202;52.238;10.680;2023-05-16T12:46:31;100272.78;;;16.19;38.14
80798;BME280;70202;52.238;10.680;2023-05-16T12:49:05;100291.03;;;16.20;37.32
80798;BME280;70202;52.238;10.680;2023-05-16T12:51:30;100287.09;;;16.24;38.01
80798;BME280;70202;52.238;10.680;2023-05-16T12:53:56;100255.28;;;16.20;37.78
80798;BME280;70202;52.238;10.680;2023-05-16T12:56:22;100279.75;;;16.39;38.18